Terminal Aerodrome Forecast
Issued by NWS

Home | Current Version | Previous Version | Text Only | Print | Product List | Glossary On
Versions: 1 2 3 4 5 6 7 8 9 10 11 12 13 14 15 16 17 18 19 20 21 22 23
000
FTUS44 KHGX 211140
TAFIAH
TAF
KIAH 211140Z 2112/2218 15003KT P6SM MIFG BKN025 BKN080
      TEMPO 2112/2113 5SM BR BKN010
     FM211500 16007KT P6SM FEW015 SCT090
     FM211800 18011KT P6SM FEW060 SCT250
     FM220200 19006KT P6SM FEW040 SCT150
     FM220900 VRB04KT P6SM MIFG BKN025
     FM221500 25006KT P6SM FEW015 SCT035 BKN250=

USA.gov is the U.S. government's official web portal to all federal, state and local government web resources and services.